createdAt,value
2022-10-05T00:01:54.737Z,94122.06
2022-10-05T00:04:28.137Z,94133.28
2022-10-05T00:07:13.475Z,94138.88
2022-10-05T00:09:40.252Z,94138.53
2022-10-05T00:12:15.167Z,94135.59
2022-10-05T00:14:43.690Z,94125.16
2022-10-05T00:17:30.796Z,94119.06
2022-10-05T00:19:57.349Z,94121.56
2022-10-05T00:22:30.386Z,94106.69
2022-10-05T00:25:00.268Z,94111.81
2022-10-05T00:27:32.748Z,94106.22
2022-10-05T00:30:02.674Z,94091.03
2022-10-05T00:32:29.404Z,94108.84
2022-10-05T00:34:57.234Z,94108.19
2022-10-05T00:37:23.839Z,94104.06
2022-10-05T00:39:51.040Z,94106.22
2022-10-05T00:42:32.584Z,94100.75
2022-10-05T00:45:06.115Z,94087.09
2022-10-05T00:47:41.764Z,94116.28
2022-10-05T00:50:11.337Z,94111.16
2022-10-05T00:53:02.407Z,94112.19
2022-10-05T00:55:43.489Z,94109.88
2022-10-05T00:58:43.864Z,94090.56
2022-10-05T01:01:33.697Z,94107.72
2022-10-05T01:04:00.311Z,94110.19
2022-10-05T01:06:44.264Z,94110.16
2022-10-05T01:09:33.453Z,94113.59
2022-10-05T01:12:13.308Z,94110.16
2022-10-05T01:14:54.071Z,94105.22
2022-10-05T01:17:24.491Z,94115.13
2022-10-05T01:20:19.507Z,94109.88
2022-10-05T01:22:48.947Z,94111.53
2022-10-05T01:25:25.090Z,94106.25
2022-10-05T01:28:17.205Z,94100.59
2022-10-05T01:30:56.626Z,94080.69
2022-10-05T01:33:33.954Z,94100.94
2022-10-05T01:36:07.708Z,94081.16
2022-10-05T01:39:11.331Z,94097.97
2022-10-05T01:41:49.060Z,94107.03
2022-10-05T01:44:20.573Z,94095.00
2022-10-05T01:46:54.894Z,94102.75
2022-10-05T01:49:45.928Z,94103.91
2022-10-05T01:52:12.550Z,94096.31
2022-10-05T01:55:06.619Z,94095.50
2022-10-05T01:57:42.205Z,94091.56
2022-10-05T02:00:10.113Z,94090.41
2022-10-05T02:02:43.812Z,94080.16
2022-10-05T02:05:18.055Z,94077.69
2022-10-05T02:07:51.796Z,94084.13
2022-10-05T02:10:59.487Z,94086.59
2022-10-05T02:13:34.507Z,94082.16
2022-10-05T02:16:05.371Z,94076.38
2022-10-05T02:18:42.646Z,94079.81
2022-10-05T02:21:09.500Z,94077.69
2022-10-05T02:23:39.501Z,94085.44
2022-10-05T02:26:08.875Z,94090.88
2022-10-05T02:28:41.488Z,94082.78
2022-10-05T02:31:14.382Z,94063.97
2022-10-05T02:33:41.039Z,94086.09
2022-10-05T02:36:11.664Z,94081.31
2022-10-05T02:38:44.307Z,94084.47
2022-10-05T02:41:26.052Z,94076.84
2022-10-05T02:44:25.545Z,94079.00
2022-10-05T02:47:23.863Z,94072.59
2022-10-05T02:49:59.435Z,94075.88
2022-10-05T02:52:37.890Z,94073.75
2022-10-05T02:55:28.335Z,94076.66
2022-10-05T02:58:08.483Z,94090.63
2022-10-05T03:00:46.239Z,94081.44
2022-10-05T03:03:24.652Z,94083.38
2022-10-05T03:05:58.752Z,94075.44
2022-10-05T03:08:34.785Z,94059.84
2022-10-05T03:11:19.088Z,94074.88
2022-10-05T03:14:11.769Z,94074.53
2022-10-05T03:16:48.648Z,94079.31
2022-10-05T03:19:25.750Z,94078.50
2022-10-05T03:21:52.447Z,94075.53
2022-10-05T03:24:41.784Z,94080.47
2022-10-05T03:27:37.393Z,94045.56
2022-10-05T03:30:53.758Z,94071.94
2022-10-05T03:33:27.787Z,94074.88
2022-10-05T03:36:17.289Z,94076.34
2022-10-05T03:38:54.684Z,94070.28
2022-10-05T03:41:42.608Z,94076.84
2022-10-05T03:44:27.517Z,94050.66
2022-10-05T03:47:30.851Z,94071.41
2022-10-05T03:50:29.567Z,94069.94
2022-10-05T03:53:01.716Z,94075.50
2022-10-05T03:55:39.460Z,94072.88
2022-10-05T03:58:35.137Z,94078.47
2022-10-05T04:01:10.535Z,94061.50
2022-10-05T04:03:47.481Z,94063.00
2022-10-05T04:06:14.076Z,94074.88
2022-10-05T04:09:00.373Z,94079.47
2022-10-05T04:11:34.252Z,94077.16
2022-10-05T04:14:25.614Z,94076.53
2022-10-05T04:16:59.731Z,94047.84
2022-10-05T04:19:36.711Z,94058.38
2022-10-05T04:22:21.846Z,94065.81
2022-10-05T04:24:56.122Z,94069.09
2022-10-05T04:27:30.911Z,94065.63
2022-10-05T04:30:11.560Z,94062.16
2022-10-05T04:32:52.701Z,94064.97
2022-10-05T04:35:41.032Z,94068.25
2022-10-05T04:38:26.012Z,94066.13
2022-10-05T04:41:20.229Z,94066.97
2022-10-05T04:43:56.560Z,94049.81
2022-10-05T04:46:36.595Z,94071.72
2022-10-05T04:49:31.869Z,94074.72
2022-10-05T04:52:25.577Z,94078.66
2022-10-05T04:55:02.455Z,94072.19
2022-10-05T04:57:41.579Z,94070.22
2022-10-05T05:00:51.406Z,94078.13
2022-10-05T05:03:39.497Z,94084.47
2022-10-05T05:06:24.228Z,94086.31
2022-10-05T05:09:09.486Z,94087.94
2022-10-05T05:12:05.664Z,94090.22
2022-10-05T05:15:07.773Z,94094.53
2022-10-05T05:17:43.238Z,94095.84
2022-10-05T05:20:22.058Z,94093.06
2022-10-05T05:22:53.017Z,94068.50
2022-10-05T05:25:34.753Z,94087.63
2022-10-05T05:28:18.529Z,94095.88
2022-10-05T05:30:52.676Z,94092.88
2022-10-05T05:33:31.428Z,94097.75
2022-10-05T05:36:10.112Z,94098.97
2022-10-05T05:38:48.592Z,94087.53
2022-10-05T05:41:38.047Z,94097.47
2022-10-05T05:44:25.135Z,94101.72
2022-10-05T05:47:17.494Z,94097.81
2022-10-05T05:49:51.992Z,94099.44
2022-10-05T05:52:25.576Z,94110.50
2022-10-05T05:55:01.064Z,94099.56
2022-10-05T05:57:30.547Z,94107.00
2022-10-05T06:00:24.616Z,94106.03
2022-10-05T06:03:16.000Z,94101.38
2022-10-05T06:05:44.906Z,94107.19
2022-10-05T06:08:23.785Z,94117.88
2022-10-05T06:10:59.699Z,94094.19
2022-10-05T06:13:38.310Z,94109.41
2022-10-05T06:16:18.561Z,94096.72
2022-10-05T06:18:55.360Z,94112.38
2022-10-05T06:21:45.032Z,94112.72
2022-10-05T06:24:18.414Z,94103.88
2022-10-05T06:27:00.360Z,94108.50
2022-10-05T06:29:53.525Z,94107.19
2022-10-05T06:32:38.585Z,94107.69
2022-10-05T06:35:23.603Z,94110.31
2022-10-05T06:38:08.584Z,94114.47
2022-10-05T06:40:43.673Z,94111.81
2022-10-05T06:43:29.147Z,94116.44
2022-10-05T06:46:16.897Z,94102.28
2022-10-05T06:49:17.796Z,94097.31
2022-10-05T06:51:53.358Z,94098.13
2022-10-05T06:54:50.813Z,94100.59
2022-10-05T06:57:49.148Z,94104.53
2022-10-05T07:00:19.054Z,94102.16
2022-10-05T07:03:24.511Z,94096.53
2022-10-05T07:05:56.992Z,94085.72
2022-10-05T07:08:29.303Z,94084.72
2022-10-05T07:11:04.335Z,94085.50
2022-10-05T07:13:42.776Z,94088.97
2022-10-05T07:16:34.062Z,94087.00
2022-10-05T07:19:06.700Z,94085.50
2022-10-05T07:21:42.256Z,94089.28
2022-10-05T07:24:29.170Z,94093.66
2022-10-05T07:27:25.101Z,94084.56
2022-10-05T07:29:51.611Z,94080.22
2022-10-05T07:32:24.243Z,94087.41
2022-10-05T07:35:08.244Z,94059.44
2022-10-05T07:37:57.634Z,94084.38
2022-10-05T07:40:41.497Z,94075.31
2022-10-05T07:43:45.269Z,94085.91
2022-10-05T07:46:26.672Z,94081.09
2022-10-05T07:48:57.698Z,94073.44
2022-10-05T07:51:40.923Z,94087.19
2022-10-05T07:54:25.378Z,94067.81
2022-10-05T07:57:14.708Z,94081.22
2022-10-05T07:59:41.255Z,94077.66
2022-10-05T08:03:00.253Z,94071.44
2022-10-05T08:05:32.568Z,94067.56
2022-10-05T08:08:12.436Z,94072.38
2022-10-05T08:10:50.029Z,94074.47
2022-10-05T08:13:22.088Z,94061.63
2022-10-05T08:15:53.891Z,94066.88
2022-10-05T08:18:45.177Z,94045.53
2022-10-05T08:21:16.198Z,94039.84
2022-10-05T08:23:54.083Z,94060.03
2022-10-05T08:26:45.172Z,94051.91
2022-10-05T08:29:20.709Z,94058.63
2022-10-05T08:31:52.140Z,94046.66
2022-10-05T08:34:24.800Z,94037.66
2022-10-05T08:37:10.608Z,94032.25
2022-10-05T08:39:47.840Z,94047.47
2022-10-05T08:42:39.143Z,94045.50
2022-10-05T08:45:14.840Z,94042.66
2022-10-05T08:48:10.470Z,94026.47
2022-10-05T08:51:07.665Z,94032.94
2022-10-05T08:54:11.364Z,94034.19
2022-10-05T08:56:56.634Z,94031.78
2022-10-05T09:00:00.260Z,94027.34
2022-10-05T09:02:35.673Z,94018.34
2022-10-05T09:05:24.291Z,94021.22
2022-10-05T09:07:57.087Z,94023.28
2022-10-05T09:10:51.699Z,94031.53
2022-10-05T09:13:46.800Z,94024.97
2022-10-05T09:16:16.806Z,94031.53
2022-10-05T09:18:59.771Z,94014.69
2022-10-05T09:21:39.820Z,94014.28
2022-10-05T09:24:12.343Z,94020.41
2022-10-05T09:26:59.379Z,94013.44
2022-10-05T09:30:03.545Z,94014.28
2022-10-05T09:32:59.433Z,94015.94
2022-10-05T09:35:38.143Z,94012.19
2022-10-05T09:38:04.793Z,94008.44
2022-10-05T09:40:49.831Z,94011.44
2022-10-05T09:43:34.708Z,94011.13
2022-10-05T09:46:35.560Z,94008.97
2022-10-05T09:49:24.001Z,94002.09
2022-10-05T09:51:53.676Z,93981.06
2022-10-05T09:54:43.225Z,93993.19
2022-10-05T09:57:40.180Z,93981.56
2022-10-05T10:00:35.523Z,93970.56
2022-10-05T10:03:28.095Z,93975.47
2022-10-05T10:06:27.376Z,93975.31
2022-10-05T10:09:32.227Z,93976.84
2022-10-05T10:12:20.151Z,93973.41
2022-10-05T10:15:09.377Z,93972.16
2022-10-05T10:17:55.480Z,93966.72
2022-10-05T10:20:32.604Z,93975.94
2022-10-05T10:23:22.712Z,93972.97
2022-10-05T10:26:16.711Z,93978.41
2022-10-05T10:28:43.321Z,93983.16
2022-10-05T10:31:43.486Z,93975.63
2022-10-05T10:34:37.513Z,93978.00
2022-10-05T10:37:25.598Z,93978.78
2022-10-05T10:40:37.115Z,93975.78
2022-10-05T10:43:12.499Z,93978.78
2022-10-05T10:45:59.830Z,93975.81
2022-10-05T10:48:30.383Z,93975.81
2022-10-05T10:51:06.134Z,93981.09
2022-10-05T10:53:45.236Z,93965.84
2022-10-05T10:56:27.044Z,93967.00
2022-10-05T10:59:25.545Z,93965.06
2022-10-05T11:02:19.431Z,93963.84
2022-10-05T11:05:04.123Z,93962.28
2022-10-05T11:07:40.829Z,93960.63
2022-10-05T11:10:32.466Z,93961.31
2022-10-05T11:13:30.681Z,93952.97
2022-10-05T11:16:21.963Z,93955.78
2022-10-05T11:18:57.027Z,93952.09
2022-10-05T11:21:52.728Z,93953.06
2022-10-05T11:24:38.820Z,93949.31
2022-10-05T11:27:25.763Z,93949.91
2022-10-05T11:30:30.136Z,93948.28
2022-10-05T11:33:11.911Z,93936.72
2022-10-05T11:35:57.693Z,93924.59
2022-10-05T11:38:46.086Z,93938.09
2022-10-05T11:41:24.473Z,93939.03
2022-10-05T11:43:57.954Z,93934.84
2022-10-05T11:46:28.327Z,93927.25
2022-10-05T11:49:42.979Z,93920.38
2022-10-05T11:52:28.613Z,93923.63
2022-10-05T11:55:15.418Z,93916.97
2022-10-05T11:57:58.631Z,93922.91
2022-10-05T12:00:40.574Z,93915.06
2022-10-05T12:03:42.647Z,93919.84
2022-10-05T12:06:30.660Z,93922.19
2022-10-05T12:09:22.955Z,93906.69
2022-10-05T12:12:10.222Z,93909.19
2022-10-05T12:14:45.604Z,93908.72
2022-10-05T12:17:41.194Z,93910.91
2022-10-05T12:20:38.464Z,93907.25
2022-10-05T12:23:17.419Z,93902.22
2022-10-05T12:25:56.231Z,93899.84
2022-10-05T12:28:32.562Z,93893.25
2022-10-05T12:31:08.618Z,93900.47
2022-10-05T12:33:42.851Z,93900.06
2022-10-05T12:37:03.161Z,93900.13
2022-10-05T12:39:50.936Z,93891.41
2022-10-05T12:42:54.002Z,93890.88
2022-10-05T12:45:50.214Z,93884.59
2022-10-05T12:48:29.789Z,93873.28
2022-10-05T12:51:30.739Z,93891.69
2022-10-05T12:54:08.155Z,93892.78
2022-10-05T12:56:42.592Z,93895.13
2022-10-05T12:59:41.109Z,93893.63
2022-10-05T13:02:34.192Z,93886.25
2022-10-05T13:05:10.104Z,93889.63
2022-10-05T13:07:55.136Z,93897.66
2022-10-05T13:10:31.495Z,93906.59
2022-10-05T13:13:25.128Z,93892.75
2022-10-05T13:16:27.094Z,93899.09
2022-10-05T13:19:16.155Z,93896.97
2022-10-05T13:22:09.976Z,93893.94
2022-10-05T13:25:10.427Z,93901.56
2022-10-05T13:27:42.571Z,93888.47
2022-10-05T13:30:13.941Z,93896.91
2022-10-05T13:32:43.571Z,93900.56
2022-10-05T13:35:22.411Z,93880.22
2022-10-05T13:38:01.703Z,93892.97
2022-10-05T13:40:40.205Z,93908.09
2022-10-05T13:43:39.120Z,93901.38
2022-10-05T13:46:43.572Z,93900.16
2022-10-05T13:49:35.323Z,93901.16
2022-10-05T13:52:14.860Z,93900.94
2022-10-05T13:55:09.223Z,93884.94
2022-10-05T13:57:56.398Z,93902.09
2022-10-05T14:00:27.005Z,93910.06
2022-10-05T14:02:57.258Z,93896.31
2022-10-05T14:05:29.487Z,93902.66
2022-10-05T14:08:01.784Z,93892.72
2022-10-05T14:10:40.559Z,93900.09
2022-10-05T14:13:27.584Z,93898.06
2022-10-05T14:16:04.306Z,93897.72
2022-10-05T14:18:34.204Z,93896.09
2022-10-05T14:21:18.641Z,93893.50
2022-10-05T14:23:45.607Z,93890.22
2022-10-05T14:26:25.957Z,93906.97
2022-10-05T14:28:58.783Z,93890.50
2022-10-05T14:31:36.962Z,93893.91
2022-10-05T14:34:34.712Z,93885.31
2022-10-05T14:37:18.006Z,93890.69
2022-10-05T14:39:47.072Z,93870.84
2022-10-05T14:42:26.889Z,93875.53
2022-10-05T14:45:11.443Z,93880.34
2022-10-05T14:47:49.412Z,93889.25
2022-10-05T14:50:26.008Z,93879.19
2022-10-05T14:53:18.606Z,93871.97
2022-10-05T14:55:45.286Z,93879.72
2022-10-05T14:58:23.746Z,93873.56
2022-10-05T15:01:27.159Z,93876.34
2022-10-05T15:03:53.761Z,93879.28
2022-10-05T15:06:43.923Z,93872.75
2022-10-05T15:09:48.775Z,93880.22
2022-10-05T15:12:25.075Z,93879.69
2022-10-05T15:14:56.231Z,93895.47
2022-10-05T15:17:30.964Z,93900.69
2022-10-05T15:20:10.449Z,93903.72
2022-10-05T15:22:46.276Z,93892.63
2022-10-05T15:25:37.166Z,93888.78
2022-10-05T15:28:07.321Z,93895.91
2022-10-05T15:30:39.753Z,93907.44
2022-10-05T15:33:12.702Z,93909.13
2022-10-05T15:36:09.407Z,93909.38
2022-10-05T15:39:19.396Z,93906.00
2022-10-05T15:41:58.830Z,93919.34
2022-10-05T15:44:59.367Z,93924.13
2022-10-05T15:47:42.518Z,93903.91
2022-10-05T15:50:20.265Z,93910.47
2022-10-05T15:52:56.133Z,93935.34
2022-10-05T15:55:35.218Z,93930.59
2022-10-05T15:58:23.651Z,93935.44
2022-10-05T16:00:58.754Z,93943.22
2022-10-05T16:03:25.603Z,93948.34
2022-10-05T16:06:20.783Z,93943.56
2022-10-05T16:09:05.425Z,93950.03
2022-10-05T16:12:06.549Z,93950.50
2022-10-05T16:14:38.020Z,93953.00
2022-10-05T16:17:13.592Z,93957.00
2022-10-05T16:20:14.613Z,93954.25
2022-10-05T16:23:05.289Z,93961.59
2022-10-05T16:25:34.739Z,93967.19
2022-10-05T16:28:05.308Z,93961.81
2022-10-05T16:31:06.843Z,93970.75
2022-10-05T16:34:06.525Z,93968.81
2022-10-05T16:36:58.642Z,93975.97
2022-10-05T16:39:58.778Z,93986.31
2022-10-05T16:42:44.716Z,93988.66
2022-10-05T16:45:46.640Z,93996.91
2022-10-05T16:48:26.624Z,94000.66
2022-10-05T16:50:56.239Z,93998.16
2022-10-05T16:53:33.455Z,94005.66
2022-10-05T16:56:04.472Z,94009.31
2022-10-05T16:58:46.161Z,94010.53
2022-10-05T17:01:41.876Z,94019.22
2022-10-05T17:04:54.300Z,94020.03
2022-10-05T17:07:29.815Z,94016.50
2022-10-05T17:10:27.365Z,94013.50
2022-10-05T17:13:13.588Z,94024.34
2022-10-05T17:16:30.860Z,94033.78
2022-10-05T17:19:35.220Z,94032.56
2022-10-05T17:22:39.665Z,94039.31
2022-10-05T17:25:11.968Z,94048.75
2022-10-05T17:28:16.957Z,94049.16
2022-10-05T17:30:54.149Z,94045.44
2022-10-05T17:33:32.013Z,94057.38
2022-10-05T17:36:12.359Z,94068.41
2022-10-05T17:38:50.938Z,94069.66
2022-10-05T17:41:30.364Z,94067.19
2022-10-05T17:44:21.298Z,94073.91
2022-10-05T17:47:00.977Z,94072.06
2022-10-05T17:50:14.720Z,94074.56
2022-10-05T17:53:02.553Z,94073.28
2022-10-05T17:55:32.243Z,94022.06
2022-10-05T17:58:20.488Z,94092.75
2022-10-05T18:01:00.621Z,94089.72
2022-10-05T18:03:39.243Z,94093.00
2022-10-05T18:06:26.393Z,94094.97
2022-10-05T18:09:17.441Z,94097.84
2022-10-05T18:11:49.205Z,94083.41
2022-10-05T18:14:19.836Z,94104.53
2022-10-05T18:16:56.711Z,94113.22
2022-10-05T18:19:23.532Z,94118.31
2022-10-05T18:22:16.025Z,94119.94
2022-10-05T18:24:56.110Z,94121.59
2022-10-05T18:27:36.568Z,94120.00
2022-10-05T18:30:16.598Z,94127.78
2022-10-05T18:32:49.711Z,94133.25
2022-10-05T18:35:38.396Z,94131.69
2022-10-05T18:38:32.112Z,94141.72
2022-10-05T18:41:05.298Z,94139.94
2022-10-05T18:43:51.734Z,94119.44
2022-10-05T18:46:42.348Z,94126.84
2022-10-05T18:49:33.103Z,94149.22
2022-10-05T18:52:30.900Z,94168.75
2022-10-05T18:55:10.334Z,94179.38
2022-10-05T18:57:52.114Z,94180.84
2022-10-05T19:00:24.094Z,94182.69
2022-10-05T19:03:20.889Z,94198.03
2022-10-05T19:05:50.705Z,94189.50
2022-10-05T19:08:50.979Z,94205.44
2022-10-05T19:11:23.140Z,94199.69
2022-10-05T19:14:14.697Z,94205.19
2022-10-05T19:16:59.910Z,94208.91
2022-10-05T19:19:43.780Z,94203.72
2022-10-05T19:22:45.844Z,94215.88
2022-10-05T19:25:20.996Z,94227.31
2022-10-05T19:27:54.513Z,94228.03
2022-10-05T19:30:27.121Z,94232.59
2022-10-05T19:32:53.788Z,94235.59
2022-10-05T19:35:26.401Z,94230.59
2022-10-05T19:38:20.543Z,94230.88
2022-10-05T19:41:27.276Z,94233.09
2022-10-05T19:44:15.476Z,94232.91
2022-10-05T19:46:54.308Z,94235.44
2022-10-05T19:49:47.873Z,94227.38
2022-10-05T19:52:48.978Z,94238.59
2022-10-05T19:55:26.237Z,94247.41
2022-10-05T19:57:56.259Z,94243.25
2022-10-05T20:00:25.669Z,94256.28
2022-10-05T20:03:16.750Z,94255.63
2022-10-05T20:05:43.632Z,94257.22
2022-10-05T20:08:18.836Z,94256.44
2022-10-05T20:11:15.968Z,94269.22
2022-10-05T20:14:12.875Z,94278.16
2022-10-05T20:16:58.128Z,94286.13
2022-10-05T20:19:49.594Z,94285.84
2022-10-05T20:22:22.395Z,94290.28
2022-10-05T20:24:51.044Z,94267.34
2022-10-05T20:27:38.160Z,94300.75
2022-10-05T20:30:06.925Z,94284.38
2022-10-05T20:32:33.954Z,94293.44
2022-10-05T20:35:00.722Z,94305.72
2022-10-05T20:37:27.354Z,94299.94
2022-10-05T20:39:53.954Z,94299.56
2022-10-05T20:42:21.202Z,94305.34
2022-10-05T20:44:52.942Z,94299.81
2022-10-05T20:47:23.072Z,94306.44
2022-10-05T20:49:50.317Z,94297.41
2022-10-05T20:52:16.973Z,94299.28
2022-10-05T20:54:43.621Z,94303.66
2022-10-05T20:57:10.534Z,94310.00
2022-10-05T20:59:37.376Z,94310.75
2022-10-05T21:02:04.813Z,94321.28
2022-10-05T21:04:40.787Z,94325.97
2022-10-05T21:07:08.239Z,94318.81
2022-10-05T21:09:38.265Z,94321.03
2022-10-05T21:12:05.506Z,94335.53
2022-10-05T21:14:34.290Z,94334.66
2022-10-05T21:17:01.929Z,94335.03
2022-10-05T21:19:29.420Z,94324.31
2022-10-05T21:21:59.186Z,94342.91
2022-10-05T21:24:26.224Z,94308.03
2022-10-05T21:26:56.735Z,94333.22
2022-10-05T21:29:23.372Z,94337.38
2022-10-05T21:31:50.137Z,94327.50
2022-10-05T21:34:16.865Z,94338.81
2022-10-05T21:36:43.597Z,94351.66
2022-10-05T21:39:10.231Z,94346.97
2022-10-05T21:41:36.915Z,94345.81
2022-10-05T21:44:04.118Z,94358.03
2022-10-05T21:46:31.576Z,94342.50
2022-10-05T21:48:58.314Z,94359.97
2022-10-05T21:51:26.449Z,94350.00
2022-10-05T21:54:02.759Z,94360.94
2022-10-05T21:56:35.999Z,94363.44
2022-10-05T21:59:10.723Z,94365.44
2022-10-05T22:01:37.504Z,94371.44
2022-10-05T22:04:05.620Z,94334.72
2022-10-05T22:06:32.563Z,94377.03
2022-10-05T22:08:59.618Z,94377.09
2022-10-05T22:11:27.955Z,94377.56
2022-10-05T22:14:01.616Z,94359.06
2022-10-05T22:16:33.813Z,94380.91
2022-10-05T22:19:13.665Z,94379.53
2022-10-05T22:21:41.806Z,94362.28
2022-10-05T22:24:11.589Z,94386.47
2022-10-05T22:26:39.900Z,94369.72
2022-10-05T22:29:06.921Z,94393.22
2022-10-05T22:31:33.690Z,94395.03
2022-10-05T22:34:00.503Z,94387.47
2022-10-05T22:36:27.262Z,94396.44
2022-10-05T22:38:53.884Z,94396.91
2022-10-05T22:41:20.856Z,94376.78
2022-10-05T22:43:50.079Z,94387.22
2022-10-05T22:46:17.522Z,94420.13
2022-10-05T22:48:44.495Z,94409.69
2022-10-05T22:51:11.218Z,94420.03
2022-10-05T22:53:38.195Z,94422.16
2022-10-05T22:56:12.874Z,94408.41
2022-10-05T22:58:41.069Z,94418.34
2022-10-05T23:01:12.941Z,94417.38
2022-10-05T23:03:39.855Z,94423.38
2022-10-05T23:06:09.792Z,94421.69
2022-10-05T23:08:37.875Z,94426.84
2022-10-05T23:11:10.636Z,94430.03
2022-10-05T23:13:37.966Z,94430.59
2022-10-05T23:16:09.999Z,94434.66
2022-10-05T23:18:36.903Z,94436.34
2022-10-05T23:21:07.338Z,94433.69
2022-10-05T23:23:38.733Z,94439.16
2022-10-05T23:26:06.484Z,94434.84
2022-10-05T23:28:33.956Z,94440.66
2022-10-05T23:31:02.545Z,94444.44
2022-10-05T23:33:29.851Z,94419.28
2022-10-05T23:36:04.874Z,94440.97
2022-10-05T23:38:32.011Z,94440.31
2022-10-05T23:40:59.802Z,94447.56
2022-10-05T23:43:27.347Z,94443.25
2022-10-05T23:45:54.391Z,94424.44
2022-10-05T23:48:21.357Z,94459.97
2022-10-05T23:50:49.580Z,94450.53
2022-10-05T23:53:17.766Z,94456.16
2022-10-05T23:55:44.715Z,94449.06
2022-10-05T23:58:11.993Z,94451.72
